Time;durP1;ratioP1;P1;durP2;ratioP2;P2;SDS_P1;SDS_P2;PMS_P1;PMS_P2;Temp;Humidity;BMP_temperature;BMP_pressure;BME280_temperature;BME280_humidity;BME280_pressure;Samples;Min_cycle;Max_cycle;Signal;HPM_P1;HPM_P2
2021/08/11 00:02:20;;;;;;;;;4.00;4.00;;;;;23.58;56.76;101284.94;5060371;28;45396;-61
2021/08/11 00:04:45;;;;;;;;;3.00;3.00;;;;;23.57;56.40;101288.59;5059273;28;45386;-61
2021/08/11 00:07:11;;;;;;;;;4.50;4.50;;;;;23.55;56.59;101287.81;5060575;28;45421;-61
2021/08/11 00:09:36;;;;;;;;;5.00;5.00;;;;;23.52;56.77;101290.75;5060182;28;47157;-61
2021/08/11 00:12:02;;;;;;;;;4.00;4.00;;;;;23.50;56.78;101295.38;5056415;28;45761;-61
2021/08/11 00:14:28;;;;;;;;;3.33;3.00;;;;;23.46;57.11;101302.84;5058701;28;46326;-61
2021/08/11 00:16:53;;;;;;;;;4.00;4.00;;;;;23.43;57.12;101302.19;5054786;28;45314;-61
2021/08/11 00:19:19;;;;;;;;;4.33;4.33;;;;;23.37;57.30;101306.16;5058249;28;47233;-61
2021/08/11 00:21:45;;;;;;;;;4.67;4.33;;;;;23.30;57.04;101303.97;5058588;28;45433;-62
2021/08/11 00:24:10;;;;;;;;;4.00;4.00;;;;;23.23;57.31;101310.72;5055057;28;45540;-59
2021/08/11 00:26:36;;;;;;;;;6.00;5.00;;;;;23.17;57.60;101314.72;5051734;28;45652;-60
2021/08/11 00:29:02;;;;;;;;;5.00;5.00;;;;;23.14;57.41;101314.94;5058470;28;46989;-59
2021/08/11 00:31:27;;;;;;;;;3.00;3.00;;;;;23.13;57.72;101319.47;5051896;28;45815;-60
2021/08/11 00:33:53;;;;;;;;;3.67;3.67;;;;;23.13;57.79;101313.19;5058205;28;45570;-60
2021/08/11 00:36:18;;;;;;;;;5.00;5.00;;;;;23.13;57.81;101313.19;5059657;28;45633;-59
2021/08/11 00:38:44;;;;;;;;;4.33;4.33;;;;;23.14;57.88;101317.63;5058446;28;47381;-60
2021/08/11 00:41:09;;;;;;;;;5.00;5.00;;;;;23.13;57.38;101315.91;5052747;28;45598;-56
2021/08/11 00:43:35;;;;;;;;;4.00;4.00;;;;;23.11;57.64;101318.66;5076618;28;45591;-57
2021/08/11 00:46:00;;;;;;;;;4.67;4.67;;;;;23.08;58.00;101310.75;5093690;27;45390;-57
2021/08/11 00:48:26;;;;;;;;;5.00;5.00;;;;;23.06;58.10;101315.41;5059088;28;47426;-57
2021/08/11 00:50:52;;;;;;;;;3.67;3.67;;;;;23.03;58.20;101314.75;5059100;28;45278;-57
2021/08/11 00:53:22;;;;;;;;;4.00;4.00;;;;;23.01;58.01;101328.38;5058848;28;45554;-56
2021/08/11 00:55:50;;;;;;;;;3.00;3.00;;;;;23.00;58.13;101334.75;5071614;28;45356;-57
2021/08/11 00:58:19;;;;;;;;;4.33;4.33;;;;;23.01;58.33;101332.94;5058220;28;47226;-57
2021/08/11 01:00:47;;;;;;;;;5.67;4.00;;;;;22.98;58.18;101333.97;5059656;27;45405;-56
2021/08/11 01:03:21;;;;;;;;;3.00;3.00;;;;;22.95;58.33;101334.16;5059765;27;45358;-56
2021/08/11 01:05:47;;;;;;;;;3.00;3.00;;;;;22.97;58.42;101342.19;5059089;28;45326;-56
2021/08/11 01:08:13;;;;;;;;;2.67;2.67;;;;;23.01;58.50;101341.03;5059125;28;48756;-55
2021/08/11 01:10:40;;;;;;;;;3.67;3.67;;;;;23.02;58.18;101343.66;5059955;28;45389;-56
2021/08/11 01:13:05;;;;;;;;;3.67;3.67;;;;;23.04;58.27;101339.00;5057371;28;45429;-55
2021/08/11 01:15:31;;;;;;;;;3.00;3.00;;;;;23.05;58.43;101335.31;5058870;27;45271;-56
2021/08/11 01:17:57;;;;;;;;;4.67;3.67;;;;;23.07;58.87;101325.25;5051168;27;47250;-56
2021/08/11 01:20:23;;;;;;;;;3.33;3.33;;;;;23.09;58.30;101326.03;5058901;28;45904;-56
2021/08/11 01:23:00;;;;;;;;;5.00;5.00;;;;;23.09;58.25;101328.75;5058572;28;45468;-56
2021/08/11 01:25:34;;;;;;;;;3.33;3.33;;;;;23.11;58.08;101315.09;5058845;28;45445;-57
2021/08/11 01:29:01;;;;;;;;;4.67;4.00;;;;;23.12;58.35;101324.97;5058824;28;48223;-56
2021/08/11 01:31:47;;;;;;;;;3.33;3.33;;;;;23.14;58.17;101317.63;5012887;28;45824;-56
2021/08/11 01:34:36;;;;;;;;;2.33;2.33;;;;;23.12;57.87;101317.75;5046666;28;45555;-56
2021/08/11 01:37:03;;;;;;;;;3.00;3.00;;;;;;;;5058938;28;45530;-57
2021/08/11 01:39:36;;;;;;;;;4.00;4.00;;;;;23.00;57.92;101310.41;5056863;28;47198;-55
2021/08/11 01:42:10;;;;;;;;;2.67;2.67;;;;;22.93;58.19;101305.47;5058708;28;45518;-55
2021/08/11 01:44:43;;;;;;;;;3.00;3.00;;;;;22.89;58.39;101310.22;5058488;28;45389;-55
2021/08/11 01:47:13;;;;;;;;;2.00;2.00;;;;;22.86;58.21;101307.69;5051629;28;45475;-55
2021/08/11 01:49:42;;;;;;;;;4.67;4.00;;;;;22.83;58.13;101310.59;5058857;28;46168;-56
2021/08/11 01:52:08;;;;;;;;;3.00;3.00;;;;;22.79;58.46;101309.88;5058495;28;45652;-56
2021/08/11 01:54:35;;;;;;;;;4.00;4.00;;;;;22.78;58.56;101299.16;5058610;28;45353;-56
2021/08/11 01:57:03;;;;;;;;;4.00;4.00;;;;;22.75;58.31;101297.53;5059028;28;45433;-57
2021/08/11 01:59:28;;;;;;;;;3.00;3.00;;;;;22.74;58.44;101303.00;5057897;28;47706;-57
2021/08/11 02:01:54;;;;;;;;;2.67;2.67;;;;;22.70;58.08;101296.06;5057517;28;45601;-56
2021/08/11 02:04:20;;;;;;;;;3.00;3.00;;;;;22.66;58.36;101297.22;5058088;28;45388;-57
2021/08/11 02:06:48;;;;;;;;;3.00;3.00;;;;;22.62;58.13;101293.84;5057549;28;45337;-56
2021/08/11 02:09:17;;;;;;;;;4.67;4.00;;;;;22.59;58.24;101294.91;5058873;28;48236;-56
2021/08/11 02:11:42;;;;;;;;;2.67;2.67;;;;;22.57;58.31;101295.97;5050589;28;45583;-56
2021/08/11 02:14:09;;;;;;;;;3.67;2.67;;;;;22.55;58.36;101290.66;5055556;28;45407;-55
2021/08/11 02:16:35;;;;;;;;;3.33;2.00;;;;;22.54;58.18;101288.91;5056578;28;45981;-56
2021/08/11 02:19:01;;;;;;;;;1.67;1.67;;;;;22.52;58.24;101285.44;5057447;28;47361;-56
2021/08/11 02:21:26;;;;;;;;;3.00;3.00;;;;;22.52;58.69;101289.97;5057992;28;45278;-56
2021/08/11 02:23:52;;;;;;;;;3.67;3.67;;;;;22.51;58.51;101289.13;5057895;28;45263;-55
2021/08/11 02:26:37;;;;;;;;;3.67;3.00;;;;;22.50;58.35;101279.25;5058242;27;45429;-56
2021/08/11 02:29:11;;;;;;;;;2.00;2.00;;;;;22.48;58.67;101280.31;5057978;28;47394;-56
2021/08/11 02:31:43;;;;;;;;;3.00;3.00;;;;;22.46;58.54;101279.53;5048808;28;45857;-56
2021/08/11 02:34:28;;;;;;;;;2.33;2.33;;;;;22.44;58.03;101282.34;5058308;28;45564;-56
2021/08/11 02:36:58;;;;;;;;;3.00;2.00;;;;;22.44;58.46;101284.16;5060705;27;45384;-55
2021/08/11 02:39:31;;;;;;;;;1.67;1.67;;;;;22.42;58.32;101280.69;5059687;28;47912;-57
2021/08/11 02:42:08;;;;;;;;;3.33;3.33;;;;;22.42;57.92;101278.88;5061697;28;45416;-57
2021/08/11 02:44:39;;;;;;;;;3.00;3.00;;;;;22.41;58.36;101276.25;5061461;28;45540;-56
2021/08/11 02:47:05;;;;;;;;;4.00;3.00;;;;;22.40;58.00;101279.94;5061793;28;46425;-57
2021/08/11 02:49:34;;;;;;;;;1.33;1.33;;;;;22.39;58.52;101281.75;5061215;28;47517;-56
2021/08/11 02:52:01;;;;;;;;;4.00;4.00;;;;;22.38;58.51;101279.16;5056850;28;45406;-56
2021/08/11 02:54:28;;;;;;;;;3.67;2.00;;;;;22.36;58.14;101281.97;5055985;28;45653;-56
2021/08/11 02:56:55;;;;;;;;;4.00;4.00;;;;;22.35;58.29;101282.91;5061069;28;45704;-56
2021/08/11 02:59:22;;;;;;;;;1.67;1.67;;;;;22.32;58.49;101275.84;5060426;28;49277;-56
2021/08/11 03:01:49;;;;;;;;;3.00;3.00;;;;;22.32;58.30;101278.56;5061223;28;45358;-55
2021/08/11 03:04:15;;;;;;;;;3.00;3.00;;;;;22.32;58.54;101277.69;5061815;28;45362;-55
2021/08/11 03:06:42;;;;;;;;;2.33;2.33;;;;;22.29;58.52;101281.44;5061284;27;45487;-56
2021/08/11 03:09:08;;;;;;;;;1.33;1.33;;;;;22.28;58.55;101290.53;5061402;28;47562;-55
2021/08/11 03:11:35;;;;;;;;;2.33;2.33;;;;;22.28;58.57;101292.38;5054059;28;46014;-55
2021/08/11 03:14:05;;;;;;;;;2.00;2.00;;;;;22.25;58.49;101282.63;5055334;28;45385;-56
2021/08/11 03:16:31;;;;;;;;;2.67;2.67;;;;;22.23;58.85;101281.84;5059450;28;45365;-57
2021/08/11 03:18:57;;;;;;;;;2.00;2.00;;;;;22.23;58.47;101283.66;5060352;28;46587;-56
2021/08/11 03:21:23;;;;;;;;;2.67;2.67;;;;;22.21;58.82;101281.03;5060757;28;45270;-56
2021/08/11 03:23:48;;;;;;;;;2.33;2.33;;;;;22.19;58.68;101288.38;5060750;28;45338;-56
2021/08/11 03:26:14;;;;;;;;;2.00;2.00;;;;;22.17;58.84;101290.31;5060833;28;45445;-57
2021/08/11 03:28:39;;;;;;;;;2.67;2.67;;;;;22.15;58.81;101297.66;5059264;28;47325;-55
2021/08/11 03:31:05;;;;;;;;;1.00;1.00;;;;;22.14;58.94;101289.63;5056190;28;45476;-56
2021/08/11 03:33:30;;;;;;;;;3.00;3.00;;;;;22.13;58.81;101296.88;5055196;28;45468;-57
2021/08/11 03:35:56;;;;;;;;;2.33;2.33;;;;;22.12;59.20;101305.09;5061233;28;45363;-56
2021/08/11 03:38:21;;;;;;;;;3.00;3.00;;;;;22.09;58.85;101298.00;5060531;28;47176;-57
2021/08/11 03:40:47;;;;;;;;;3.00;3.00;;;;;22.12;59.31;101310.50;5060558;28;45277;-55
2021/08/11 03:43:12;;;;;;;;;3.00;3.00;;;;;22.10;58.98;101302.44;5061076;28;45533;-58
2021/08/11 03:45:38;;;;;;;;;3.33;3.33;;;;;22.09;59.31;101308.81;5061201;28;45400;-54
2021/08/11 03:48:04;;;;;;;;;2.00;2.00;;;;;22.12;58.90;101311.38;5059765;28;46493;-55
2021/08/11 03:50:30;;;;;;;;;2.00;2.00;;;;;22.13;59.19;101309.53;5060711;28;45357;-57
2021/08/11 03:52:55;;;;;;;;;2.33;2.33;;;;;22.14;58.89;101314.84;5060618;28;45308;-53
2021/08/11 03:55:21;;;;;;;;;3.00;3.00;;;;;22.18;59.28;101315.50;5061118;28;45436;-55
2021/08/11 03:57:46;;;;;;;;;1.67;1.67;;;;;22.21;59.21;101316.19;5060887;28;46072;-55
2021/08/11 04:00:12;;;;;;;;;2.33;2.33;;;;;22.23;59.07;101313.38;5060791;28;45526;-55
2021/08/11 04:02:38;;;;;;;;;1.67;1.67;;;;;22.24;58.79;101307.91;5060894;28;45728;-54
2021/08/11 04:05:07;;;;;;;;;2.33;2.33;;;;;22.26;59.16;101318.63;5060045;28;45500;-55
2021/08/11 04:07:35;;;;;;;;;3.00;3.00;;;;;22.26;58.75;101310.53;5061232;28;47294;-54
2021/08/11 04:10:05;;;;;;;;;3.00;3.00;;;;;22.25;58.49;101319.59;5059335;28;45365;-56
2021/08/11 04:12:30;;;;;;;;;2.33;2.00;;;;;22.27;58.98;101318.53;5045552;28;45382;-56
2021/08/11 04:14:55;;;;;;;;;2.67;2.67;;;;;22.29;59.17;101315.75;5054545;28;45625;-55
2021/08/11 04:17:21;;;;;;;;;3.33;3.33;;;;;22.31;59.34;101313.81;5084725;27;47858;-56
2021/08/11 04:19:46;;;;;;;;;4.00;4.00;;;;;22.32;59.38;101321.81;5059707;28;45646;-56
2021/08/11 04:22:12;;;;;;;;;2.67;2.67;;;;;22.34;58.57;101316.31;5059767;28;45413;-56
2021/08/11 04:24:37;;;;;;;;;3.00;3.00;;;;;22.31;58.49;101324.63;5059416;28;45593;-55
2021/08/11 04:27:03;;;;;;;;;2.67;2.67;;;;;22.31;59.30;101313.81;5059460;28;47062;-56
2021/08/11 04:29:28;;;;;;;;;2.00;2.00;;;;;22.30;58.87;101312.06;5059654;28;45357;-55
2021/08/11 04:31:54;;;;;;;;;2.00;2.00;;;;;22.30;58.87;101318.34;5050451;28;45290;-56
2021/08/11 04:34:20;;;;;;;;;4.00;3.00;;;;;22.31;59.36;101325.50;5059943;28;45351;-57
2021/08/11 04:36:46;;;;;;;;;3.00;2.67;;;;;22.31;59.06;101325.50;5058322;28;47710;-56
2021/08/11 04:39:11;;;;;;;;;2.67;2.67;;;;;22.30;58.81;101326.47;5059063;28;45429;-56
2021/08/11 04:41:36;;;;;;;;;3.67;3.67;;;;;22.27;59.18;101333.91;5060141;28;45394;-56
2021/08/11 04:44:03;;;;;;;;;3.00;3.00;;;;;22.23;59.08;101322.41;5060048;28;45711;-60
2021/08/11 04:46:29;;;;;;;;;1.00;1.00;;;;;22.21;59.25;101327.00;5059805;28;47623;-57
2021/08/11 04:48:54;;;;;;;;;3.00;3.00;;;;;22.20;59.05;101335.22;5059505;28;45701;-57
2021/08/11 04:51:21;;;;;;;;;3.00;3.00;;;;;22.18;59.16;101339.84;5060075;28;45933;-58
2021/08/11 04:53:46;;;;;;;;;4.00;4.00;;;;;22.17;59.48;101336.28;5057636;28;45689;-57
2021/08/11 04:56:11;;;;;;;;;3.67;3.00;;;;;22.15;59.63;101337.34;5071441;28;47293;-58
2021/08/11 04:58:37;;;;;;;;;4.33;4.00;;;;;22.15;59.54;101338.22;5059032;28;45846;-56
2021/08/11 05:01:02;;;;;;;;;3.67;3.67;;;;;22.13;59.57;101333.84;5051274;28;45546;-58
2021/08/11 05:03:28;;;;;;;;;4.67;4.00;;;;;22.09;59.11;101335.84;5053870;28;45383;-56
2021/08/11 05:05:54;;;;;;;;;3.00;3.00;;;;;22.07;59.33;101329.69;5089339;27;47113;-56
2021/08/11 05:08:19;;;;;;;;;2.00;2.00;;;;;22.04;59.31;101333.41;5058329;28;45362;-56
2021/08/11 05:10:45;;;;;;;;;3.33;3.33;;;;;22.03;59.33;101337.06;5058468;28;45754;-56
2021/08/11 05:13:12;;;;;;;;;2.00;2.00;;;;;22.03;59.57;101339.78;5056842;28;45340;-56
2021/08/11 05:15:38;;;;;;;;;4.00;4.00;;;;;22.02;59.65;101340.75;5058463;28;47887;-56
2021/08/11 05:18:03;;;;;;;;;3.00;3.00;;;;;22.02;59.64;101347.97;5056174;28;45710;-56
2021/08/11 05:20:29;;;;;;;;;3.00;3.00;;;;;22.02;59.69;101348.84;5058540;28;45327;-57
2021/08/11 05:22:54;;;;;;;;;4.00;3.00;;;;;22.01;59.66;101348.94;5058526;28;45420;-55
2021/08/11 05:25:19;;;;;;;;;3.00;3.00;;;;;21.98;59.80;101352.69;5058546;28;47412;-57
2021/08/11 05:27:45;;;;;;;;;3.00;3.00;;;;;21.98;60.01;101349.13;5057503;28;45471;-55
2021/08/11 05:30:11;;;;;;;;;3.33;2.67;;;;;21.97;59.67;101352.75;5058659;27;45572;-56
2021/08/11 05:32:36;;;;;;;;;5.00;4.00;;;;;21.97;59.76;101353.63;5054937;28;45484;-55
2021/08/11 05:35:04;;;;;;;;;4.00;2.67;;;;;21.98;59.87;101358.09;5056881;28;45792;-55
2021/08/11 05:37:30;;;;;;;;;2.00;2.00;;;;;21.99;60.14;101353.56;5058511;28;45717;-56
2021/08/11 05:39:55;;;;;;;;;3.00;3.00;;;;;22.02;59.94;101364.19;5058277;28;45677;-56
2021/08/11 05:42:21;;;;;;;;;3.67;3.33;;;;;22.03;59.68;101366.81;5058760;28;45386;-56
2021/08/11 05:44:49;;;;;;;;;6.00;4.67;;;;;22.04;60.23;101364.97;5057898;28;47150;-55
2021/08/11 05:47:14;;;;;;;;;4.33;4.33;;;;;22.09;59.72;101362.00;5057958;28;45928;-56
2021/08/11 05:49:40;;;;;;;;;6.67;6.67;;;;;22.12;59.57;101365.44;5058094;28;45432;-55
2021/08/11 05:52:06;;;;;;;;;7.00;7.00;;;;;22.14;60.21;101365.34;5049771;28;45392;-56
2021/08/11 05:54:34;;;;;;;;;4.33;3.00;;;;;22.16;59.66;101366.97;5057675;27;47063;-56
2021/08/11 05:56:59;;;;;;;;;4.00;4.00;;;;;22.19;60.01;101371.31;5058155;28;45588;-55
2021/08/11 05:59:25;;;;;;;;;5.00;4.00;;;;;22.22;60.07;101376.53;5058265;28;45334;-55
2021/08/11 06:01:50;;;;;;;;;5.67;3.67;;;;;22.25;59.87;101377.25;5049004;28;45402;-54
2021/08/11 06:04:17;;;;;;;;;5.00;5.00;;;;;22.25;59.39;101379.09;5058546;27;46966;-56
2021/08/11 06:06:42;;;;;;;;;5.33;5.33;;;;;22.26;59.83;101388.94;5057013;28;45428;-56
2021/08/11 06:09:08;;;;;;;;;3.00;3.00;;;;;22.28;59.85;101390.56;5053469;28;45429;-56
2021/08/11 06:11:33;;;;;;;;;5.33;5.33;;;;;22.29;59.61;101388.75;5056401;28;45369;-57
2021/08/11 06:13:59;;;;;;;;;4.00;4.00;;;;;22.32;59.55;101389.41;5061532;27;46319;-55
2021/08/11 06:16:24;;;;;;;;;8.00;8.00;;;;;22.38;59.83;101398.16;5061592;28;46021;-57
2021/08/11 06:18:50;;;;;;;;;6.33;6.33;;;;;22.44;59.49;101397.75;5060269;28;45460;-55
2021/08/11 06:21:15;;;;;;;;;5.00;4.00;;;;;22.47;59.34;101398.44;5062106;28;45675;-57
2021/08/11 06:23:41;;;;;;;;;6.67;5.67;;;;;22.52;58.93;101398.19;5056628;28;47959;-57
2021/08/11 06:26:06;;;;;;;;;4.00;4.00;;;;;22.56;59.10;101392.47;5049808;28;46201;-58
2021/08/11 06:28:32;;;;;;;;;5.67;5.67;;;;;22.57;58.89;101399.63;5080265;27;45345;-57
2021/08/11 06:30:57;;;;;;;;;5.00;5.00;;;;;22.59;58.75;101400.41;5059550;27;45464;-58
2021/08/11 06:33:23;;;;;;;;;5.00;5.00;;;;;22.63;59.04;101395.69;5061255;28;47218;-58
2021/08/11 06:35:48;;;;;;;;;4.33;4.33;;;;;22.66;58.75;101390.09;5089487;27;45364;-57
2021/08/11 06:38:14;;;;;;;;;4.33;4.33;;;;;22.71;58.76;101392.50;5048342;28;45421;-57
2021/08/11 06:40:41;;;;;;;;;5.00;4.67;;;;;22.68;58.54;101398.09;5056357;28;45315;-58
2021/08/11 06:43:06;;;;;;;;;6.00;5.00;;;;;22.65;58.76;101403.72;5047634;28;45370;-58
2021/08/11 06:45:32;;;;;;;;;5.00;5.00;;;;;22.62;58.70;101402.06;5058832;28;45428;-58
2021/08/11 06:47:57;;;;;;;;;6.00;6.00;;;;;22.61;58.70;101403.91;5061053;28;45373;-58
2021/08/11 06:50:23;;;;;;;;;4.00;4.00;;;;;22.60;58.82;101407.56;5043246;28;45291;-61
2021/08/11 06:52:48;;;;;;;;;5.00;4.00;;;;;22.58;58.85;101406.78;5080927;27;46906;-58
2021/08/11 06:55:16;;;;;;;;;6.00;6.00;;;;;22.57;59.02;101399.63;5056022;28;45996;-59
2021/08/11 06:57:46;;;;;;;;;4.33;4.33;;;;;22.58;59.03;101395.09;5059274;28;45413;-58
2021/08/11 07:00:12;;;;;;;;;4.00;4.00;;;;;22.55;59.33;101400.69;5052749;28;45719;-58
2021/08/11 07:02:38;;;;;;;;;5.67;5.67;;;;;22.56;59.26;101400.59;5058359;28;47678;-58
2021/08/11 07:05:04;;;;;;;;;4.67;4.67;;;;;22.54;59.19;101393.53;5054614;28;45755;-58
2021/08/11 07:07:30;;;;;;;;;4.00;4.00;;;;;22.53;59.54;101397.22;5059355;28;45353;-59
2021/08/11 07:09:56;;;;;;;;;5.00;5.00;;;;;22.54;59.42;101394.41;5055891;28;45322;-58
2021/08/11 07:12:22;;;;;;;;;5.67;5.67;;;;;22.54;59.42;101391.72;5044170;28;48458;-57
2021/08/11 07:14:48;;;;;;;;;6.00;6.00;;;;;22.55;59.00;101390.75;5059519;28;45316;-57
2021/08/11 07:17:14;;;;;;;;;4.67;4.67;;;;;22.56;59.30;101388.91;5052620;28;45444;-58
2021/08/11 07:19:40;;;;;;;;;6.00;4.33;;;;;22.55;59.25;101398.00;5060658;28;45599;-58
2021/08/11 07:22:06;;;;;;;;;4.00;4.00;;;;;22.54;59.03;101402.53;5061696;28;47305;-58
2021/08/11 07:24:32;;;;;;;;;6.00;5.33;;;;;22.54;59.41;101404.38;5060354;28;45841;-58
2021/08/11 07:26:58;;;;;;;;;6.00;6.00;;;;;22.55;58.90;101409.69;5069587;28;45247;-58
2021/08/11 07:29:24;;;;;;;;;3.33;3.00;;;;;22.56;59.17;101411.41;5067419;28;45349;-58
2021/08/11 07:31:49;;;;;;;;;5.00;5.00;;;;;22.57;59.25;101417.69;5064294;28;47289;-61
2021/08/11 07:34:15;;;;;;;;;3.00;3.00;;;;;22.57;59.14;101415.84;5059552;27;45476;-58
2021/08/11 07:36:41;;;;;;;;;4.00;4.00;;;;;22.59;58.22;101422.03;5078215;28;45353;-57
2021/08/11 07:39:06;;;;;;;;;4.00;3.00;;;;;22.60;58.66;101422.91;5075094;27;45451;-58
2021/08/11 07:41:32;;;;;;;;;4.00;4.00;;;;;22.60;58.26;101423.78;5079146;27;47787;-58
2021/08/11 07:43:59;;;;;;;;;3.33;3.33;;;;;22.63;58.46;101421.88;5076384;28;45360;-57
2021/08/11 07:46:25;;;;;;;;;3.67;2.67;;;;;22.63;58.12;101413.75;5072134;27;45377;-58
2021/08/11 07:48:51;;;;;;;;;2.33;2.33;;;;;22.63;57.68;101419.19;5061074;28;45322;-58
2021/08/11 07:51:16;;;;;;;;;7.00;6.67;;;;;22.65;56.97;101423.53;5067857;28;46122;-57
2021/08/11 07:53:42;;;;;;;;;6.00;6.00;;;;;22.65;57.05;101420.81;5076307;28;45316;-58
2021/08/11 07:56:07;;;;;;;;;6.00;5.33;;;;;22.68;56.94;101427.88;5079231;27;45452;-57
2021/08/11 07:58:34;;;;;;;;;4.00;4.00;;;;;22.70;57.24;101418.69;5061633;28;45472;-57
2021/08/11 08:00:59;;;;;;;;;4.67;4.67;;;;;22.73;56.94;101417.63;5074743;27;47334;-58
2021/08/11 08:03:25;;;;;;;;;3.00;3.00;;;;;22.74;57.40;101422.06;5062644;28;45437;-58
2021/08/11 08:05:50;;;;;;;;;4.00;4.00;;;;;22.79;57.16;101415.44;5079478;27;45692;-58
2021/08/11 08:08:17;;;;;;;;;17.00;17.00;;;;;22.85;57.18;101406.94;5060718;27;45427;-58
2021/08/11 08:10:42;;;;;;;;;8.25;8.00;;;;;22.94;56.94;101405.50;5078838;27;46475;-58
2021/08/11 08:13:08;;;;;;;;;14.00;13.00;;;;;23.00;56.97;101397.03;5077502;27;45360;-58
2021/08/11 08:15:34;;;;;;;;;6.33;6.00;;;;;23.07;56.56;101394.78;5063171;27;45443;-58
2021/08/11 08:17:59;;;;;;;;;7.33;7.00;;;;;23.15;56.32;101396.06;5061941;28;45547;-58
2021/08/11 08:20:25;;;;;;;;;6.00;5.67;;;;;23.23;56.19;101394.69;5067161;27;48209;-58
2021/08/11 08:22:50;;;;;;;;;4.33;4.00;;;;;23.31;55.72;101386.94;5058984;28;45894;-59
2021/08/11 08:25:21;;;;;;;;;8.67;5.67;;;;;23.41;56.17;101391.66;5082292;27;45257;-58
2021/08/11 08:27:49;;;;;;;;;6.33;5.67;;;;;23.48;55.61;101397.53;5056114;28;45409;-57
2021/08/11 08:30:16;;;;;;;;;6.33;6.33;;;;;23.56;55.17;101386.22;5059204;28;47545;-57
2021/08/11 08:32:43;;;;;;;;;7.33;6.67;;;;;23.59;55.23;101397.75;5071400;28;45987;-58
2021/08/11 08:35:08;;;;;;;;;6.00;6.00;;;;;23.66;55.20;101399.09;5057541;28;45523;-57
2021/08/11 08:37:38;;;;;;;;;4.00;4.00;;;;;23.72;54.88;101404.09;5057846;28;45582;-57
2021/08/11 08:40:05;;;;;;;;;7.00;5.00;;;;;23.84;54.81;101401.56;5056068;28;48400;-57
2021/08/11 08:42:31;;;;;;;;;5.67;5.00;;;;;23.92;54.63;101401.94;5047348;28;45686;-57
2021/08/11 08:44:57;;;;;;;;;4.00;4.00;;;;;24.00;54.38;101402.28;5058281;28;45439;-57
2021/08/11 08:47:24;;;;;;;;;5.00;5.00;;;;;24.11;54.05;101393.41;5059873;28;45543;-56
2021/08/11 08:49:49;;;;;;;;;7.33;7.33;;;;;24.23;54.29;101398.88;5051839;28;47294;-56
2021/08/11 08:52:20;;;;;;;;;5.67;5.67;;;;;24.32;53.94;101401.00;5038611;28;45723;-57
2021/08/11 08:54:46;;;;;;;;;4.67;4.67;;;;;24.42;53.79;101397.69;5047314;28;45440;-57
2021/08/11 08:57:14;;;;;;;;;5.00;5.00;;;;;24.49;53.80;101398.97;5056169;28;45314;-56
2021/08/11 08:59:44;;;;;;;;;8.00;7.33;;;;;24.53;53.08;101398.69;5053250;28;47368;-57
2021/08/11 09:02:11;;;;;;;;;4.00;4.00;;;;;24.58;53.00;101404.63;5055939;28;46482;-57
2021/08/11 09:04:37;;;;;;;;;7.67;6.33;;;;;24.67;53.25;101397.72;5054581;28;45837;-56
2021/08/11 09:07:23;;;;;;;;;5.00;5.00;;;;;24.75;52.98;101402.59;5048392;28;45500;-57
2021/08/11 09:09:48;;;;;;;;;5.33;5.33;;;;;24.75;52.62;101400.72;5047815;28;46267;-57
2021/08/11 09:12:17;;;;;;;;;4.33;4.33;;;;;24.72;52.63;101398.25;5056942;28;45442;-57
2021/08/11 09:14:45;;;;;;;;;6.00;5.33;;;;;24.68;52.67;101395.88;5057992;28;45714;-57
2021/08/11 09:17:37;;;;;;;;;5.33;4.33;;;;;24.62;52.66;101398.00;5050587;28;46141;-57
2021/08/11 09:20:05;;;;;;;;;6.00;6.00;;;;;24.60;52.55;101393.66;5051835;28;48575;-57
2021/08/11 09:22:45;;;;;;;;;5.67;5.67;;;;;24.58;52.71;101391.06;5059163;28;45882;-56
2021/08/11 09:25:12;;;;;;;;;4.67;4.67;;;;;24.56;52.67;101386.72;5054605;28;45415;-57
2021/08/11 09:27:45;;;;;;;;;7.00;5.67;;;;;24.53;53.02;101385.09;5059140;28;45373;-57
2021/08/11 09:30:20;;;;;;;;;4.33;4.00;;;;;24.54;52.83;101392.28;5091106;27;48299;-58
2021/08/11 09:32:52;;;;;;;;;7.00;5.67;;;;;24.54;52.20;101388.69;5052487;28;45389;-58
2021/08/11 09:35:32;;;;;;;;;8.00;6.00;;;;;24.54;52.50;101392.28;5050429;28;45412;-59
2021/08/11 09:38:05;;;;;;;;;8.00;7.00;;;;;24.50;52.25;101390.72;5053253;28;45954;-58
2021/08/11 09:40:33;;;;;;;;;4.33;4.33;;;;;24.48;52.47;101391.81;5047151;28;48377;-58
2021/08/11 09:43:02;;;;;;;;;5.00;5.00;;;;;24.48;52.49;101389.09;5058985;28;45318;-58
2021/08/11 09:45:41;;;;;;;;;4.33;3.33;;;;;24.46;52.26;101391.91;5076055;27;45444;-58
2021/08/11 09:48:07;;;;;;;;;6.67;6.67;;;;;24.45;52.49;101395.59;5054212;28;45414;-55
2021/08/11 09:50:32;;;;;;;;;5.00;5.00;;;;;24.43;52.56;101388.56;5054910;28;45459;-59
2021/08/11 09:52:58;;;;;;;;;5.67;5.67;;;;;24.41;52.25;101393.22;5061877;28;45386;-59
2021/08/11 09:55:24;;;;;;;;;7.67;6.00;;;;;24.40;52.46;101391.50;5062225;27;45454;-58
2021/08/11 09:57:49;;;;;;;;;6.00;6.00;;;;;24.43;52.15;101404.84;5061998;28;46284;-58
2021/08/11 10:00:15;;;;;;;;;8.00;8.00;;;;;24.44;52.30;101393.88;5061450;28;47181;-58
2021/08/11 10:02:45;;;;;;;;;5.67;5.33;;;;;24.46;52.62;101397.34;5054290;28;45602;-58
2021/08/11 10:05:35;;;;;;;;;7.00;7.00;;;;;24.50;51.92;101396.16;5061777;28;45456;-59
2021/08/11 10:08:01;;;;;;;;;8.00;7.00;;;;;24.52;51.79;101393.31;5050462;28;45824;-58
2021/08/11 10:10:27;;;;;;;;;7.67;6.67;;;;;24.54;51.44;101392.28;5062544;28;47544;-58
2021/08/11 10:12:53;;;;;;;;;7.00;7.00;;;;;24.59;51.62;101387.38;5061299;28;45388;-58
2021/08/11 10:15:19;;;;;;;;;7.00;6.00;;;;;24.64;51.77;101382.47;5060992;28;45486;-59
2021/08/11 10:17:49;;;;;;;;;7.33;6.00;;;;;24.71;51.53;101376.63;5061656;28;45741;-67
2021/08/11 10:20:18;;;;;;;;;5.00;5.00;;;;;24.79;51.15;101377.84;5061454;28;48214;-68
2021/08/11 10:22:45;;;;;;;;;8.67;7.67;;;;;24.87;51.57;101372.72;5046511;28;45251;-67
2021/08/11 10:25:10;;;;;;;;;8.67;7.67;;;;;24.95;51.46;101381.19;5052960;28;45551;-67
2021/08/11 10:27:41;;;;;;;;;8.25;7.75;;;;;25.00;50.88;101371.84;5061321;28;45453;-67
2021/08/11 10:30:08;;;;;;;;;4.67;4.67;;;;;25.07;51.05;101381.34;5061198;28;48378;-67
2021/08/11 10:32:36;;;;;;;;;7.67;7.67;;;;;25.14;50.79;101383.47;5058412;28;46187;-67
2021/08/11 10:35:02;;;;;;;;;6.33;6.00;;;;;25.23;50.73;101379.25;5039010;28;45776;-66
2021/08/11 10:37:29;;;;;;;;;9.33;9.33;;;;;25.31;50.66;101379.56;5058463;28;45916;-67
2021/08/11 10:39:54;;;;;;;;;5.00;5.00;;;;;25.40;50.22;101380.72;5062729;28;48138;-65
2021/08/11 10:42:20;;;;;;;;;7.00;6.67;;;;;25.44;49.78;101382.25;5051356;28;45318;-67
2021/08/11 10:44:46;;;;;;;;;7.33;7.33;;;;;25.45;49.38;101375.84;5060491;27;45285;-67
2021/08/11 10:47:13;;;;;;;;;6.00;6.00;;;;;25.45;49.85;101373.13;5060900;28;45373;-67
2021/08/11 10:49:53;;;;;;;;;7.00;7.00;;;;;25.42;48.97;101376.94;5061714;27;47051;-67
2021/08/11 10:52:18;;;;;;;;;8.00;8.00;;;;;25.41;49.30;101387.88;5075035;27;45321;-67
2021/08/11 10:54:55;;;;;;;;;7.33;7.33;;;;;25.40;49.23;101381.59;5057330;28;45422;-67
2021/08/11 10:57:36;;;;;;;;;8.67;8.67;;;;;25.41;49.40;101377.00;5057969;28;45366;-67
2021/08/11 11:00:05;;;;;;;;;9.00;8.00;;;;;25.42;49.07;101376.06;5058969;28;48260;-67
2021/08/11 11:02:40;;;;;;;;;6.67;6.67;;;;;25.44;49.39;101368.66;5057505;28;46038;-67
2021/08/11 11:05:08;;;;;;;;;8.67;7.67;;;;;25.43;49.09;101375.09;5061975;28;45515;-66
2021/08/11 11:07:34;;;;;;;;;6.67;6.67;;;;;25.45;48.93;101367.69;5059707;28;45636;-67
2021/08/11 11:10:27;;;;;;;;;9.25;9.25;;;;;25.50;48.30;101365.47;5055047;28;45591;-68
2021/08/11 11:12:52;;;;;;;;;11.00;11.00;;;;;25.53;48.82;101373.41;5049073;28;45641;-67
2021/08/11 11:15:40;;;;;;;;;10.00;10.00;;;;;25.53;48.45;101373.41;5047490;28;45417;-69
2021/08/11 11:18:19;;;;;;;;;11.67;11.67;;;;;25.51;48.12;101359.91;5046901;28;45386;-66
2021/08/11 11:20:44;;;;;;;;;15.25;15.25;;;;;25.52;47.98;101352.63;5059501;27;47252;-67
2021/08/11 11:23:10;;;;;;;;;13.25;12.25;;;;;25.53;48.26;101352.53;5055243;28;45350;-67
2021/08/11 11:26:05;;;;;;;;;12.00;12.00;;;;;25.54;47.65;101361.56;5053574;28;45423;-66
2021/08/11 11:28:51;;;;;;;;;9.50;9.50;;;;;25.52;48.11;101356.22;5056185;28;45443;-66